createdAt,value
2017-07-21T00:00:41.971Z,996.25
2017-07-21T00:01:52.316Z,996.28
2017-07-21T00:03:02.671Z,996.35
2017-07-21T00:04:13.027Z,996.37
2017-07-21T00:05:23.381Z,996.36
2017-07-21T00:06:33.413Z,996.37
2017-07-21T00:07:43.750Z,996.36
2017-07-21T00:08:54.089Z,996.29
2017-07-21T00:10:04.125Z,996.28
2017-07-21T00:11:14.540Z,996.28
2017-07-21T00:12:24.885Z,996.32
2017-07-21T00:13:34.925Z,996.31
2017-07-21T00:14:44.954Z,996.41
2017-07-21T00:15:55.338Z,996.42
2017-07-21T00:17:05.673Z,996.48
2017-07-21T00:18:15.695Z,996.46
2017-07-21T00:19:26.047Z,996.51
2017-07-21T00:20:36.379Z,996.54
2017-07-21T00:21:46.466Z,996.52
2017-07-21T00:22:56.822Z,996.51
2017-07-21T00:24:07.186Z,996.57
2017-07-21T00:25:17.542Z,996.5
2017-07-21T00:26:27.907Z,996.53
2017-07-21T00:27:37.998Z,996.54
2017-07-21T00:28:48.350Z,996.54
2017-07-21T00:29:58.685Z,996.58
2017-07-21T00:31:09.031Z,996.57
2017-07-21T00:32:19.376Z,996.56
2017-07-21T00:33:29.732Z,996.54
2017-07-21T00:34:40.075Z,996.56
2017-07-21T00:35:50.419Z,996.53
2017-07-21T00:37:00.761Z,996.51
2017-07-21T00:38:10.832Z,996.48
2017-07-21T00:39:21.204Z,996.42
2017-07-21T00:40:31.558Z,996.4
2017-07-21T00:41:41.276Z,996.37
2017-07-21T00:42:51.323Z,996.36
2017-07-21T00:44:01.676Z,996.37
2017-07-21T00:45:11.757Z,996.4
2017-07-21T00:46:21.794Z,996.41
2017-07-21T00:47:32.136Z,996.38
2017-07-21T00:48:42.475Z,996.33
2017-07-21T00:49:52.523Z,996.3
2017-07-21T00:51:02.880Z,996.26
2017-07-21T00:52:12.926Z,996.27
2017-07-21T00:53:22.972Z,996.28
2017-07-21T00:54:33.010Z,996.22
2017-07-21T00:55:43.346Z,996.2
2017-07-21T00:56:53.736Z,996.23
2017-07-21T00:58:04.065Z,996.22
2017-07-21T00:59:13.789Z,996.18
2017-07-21T01:00:24.159Z,996.19
2017-07-21T01:01:34.514Z,996.18
2017-07-21T01:02:44.594Z,996.18
2017-07-21T01:03:54.615Z,996.19
2017-07-21T01:05:04.970Z,996.2
2017-07-21T01:06:15.308Z,996.16
2017-07-21T01:07:25.700Z,996.15
2017-07-21T01:08:35.473Z,996.17
2017-07-21T01:09:45.828Z,996.11
2017-07-21T01:10:56.173Z,996.03
2017-07-21T01:12:06.203Z,995.97
2017-07-21T01:13:16.550Z,995.94
2017-07-21T01:14:26.635Z,995.91
2017-07-21T01:15:36.682Z,995.85
2017-07-21T01:16:46.123Z,995.82
2017-07-21T01:17:56.464Z,995.83
2017-07-21T01:19:06.498Z,995.8
2017-07-21T01:20:16.860Z,995.82
2017-07-21T01:21:27.198Z,995.8
2017-07-21T01:22:37.216Z,995.82
2017-07-21T01:23:47.570Z,995.87
2017-07-21T01:24:57.606Z,995.82
2017-07-21T01:26:08.011Z,995.85
2017-07-21T01:27:18.367Z,995.86
2017-07-21T01:28:28.713Z,995.86
2017-07-21T01:29:38.743Z,995.83
2017-07-21T01:30:48.464Z,995.91
2017-07-21T01:31:58.553Z,995.92
2017-07-21T01:33:08.897Z,995.89
2017-07-21T01:34:19.238Z,995.9
2017-07-21T01:35:29.268Z,995.92
2017-07-21T01:36:39.604Z,995.88
2017-07-21T01:37:49.957Z,995.91
2017-07-21T01:38:59.982Z,995.85
2017-07-21T01:40:10.017Z,995.84
2017-07-21T01:41:20.040Z,995.83
2017-07-21T01:42:30.383Z,995.82
2017-07-21T01:43:40.725Z,995.78
2017-07-21T01:44:51.062Z,995.74
2017-07-21T01:46:01.092Z,995.72
2017-07-21T01:47:11.425Z,995.7
2017-07-21T01:48:21.468Z,995.67
2017-07-21T01:49:31.505Z,995.66
2017-07-21T01:50:41.541Z,995.73
2017-07-21T01:51:51.890Z,995.77
2017-07-21T01:53:02.230Z,995.75
2017-07-21T01:54:12.585Z,995.83
2017-07-21T01:55:22.970Z,995.84
2017-07-21T01:56:33.319Z,995.85
2017-07-21T01:57:43.350Z,995.85
2017-07-21T01:58:53.394Z,995.87
2017-07-21T02:00:03.722Z,995.91
2017-07-21T02:01:14.063Z,995.9
2017-07-21T02:02:24.405Z,995.95
2017-07-21T02:03:34.746Z,995.94
2017-07-21T02:04:45.102Z,995.94
2017-07-21T02:05:55.447Z,995.95
2017-07-21T02:07:05.539Z,995.95
2017-07-21T02:08:15.885Z,995.96
2017-07-21T02:09:25.912Z,995.93
2017-07-21T02:10:35.949Z,995.95
2017-07-21T02:11:46.298Z,995.98
2017-07-21T02:12:56.699Z,996.03
2017-07-21T02:14:07.066Z,996.01
2017-07-21T02:15:17.106Z,995.97
2017-07-21T02:16:27.459Z,996.01
2017-07-21T02:17:37.796Z,995.99
2017-07-21T02:18:48.199Z,996
2017-07-21T02:19:58.234Z,995.99
2017-07-21T02:21:08.583Z,995.99
2017-07-21T02:22:18.623Z,995.93
2017-07-21T02:23:28.989Z,995.94
2017-07-21T02:24:39.335Z,995.94
2017-07-21T02:25:49.674Z,995.95
2017-07-21T02:27:00.030Z,995.99
2017-07-21T02:28:10.367Z,995.99
2017-07-21T02:29:20.711Z,996
2017-07-21T02:30:30.738Z,996.01
2017-07-21T02:31:41.098Z,995.97
2017-07-21T02:32:51.136Z,995.92
2017-07-21T02:34:01.477Z,995.91
2017-07-21T02:35:11.828Z,995.93
2017-07-21T02:36:21.897Z,995.97
2017-07-21T02:37:31.936Z,996.01
2017-07-21T02:38:41.975Z,995.97
2017-07-21T02:39:52.039Z,996.02
2017-07-21T02:41:02.372Z,996.02
2017-07-21T02:42:12.714Z,996.06
2017-07-21T02:43:23.055Z,996.01
2017-07-21T02:44:33.401Z,996
2017-07-21T02:45:43.767Z,995.96
2017-07-21T02:46:54.109Z,995.96
2017-07-21T02:48:04.452Z,996.01
2017-07-21T02:49:14.811Z,995.99
2017-07-21T02:50:25.165Z,996.04
2017-07-21T02:51:35.531Z,996.07
2017-07-21T02:52:45.897Z,996.07
2017-07-21T02:53:56.240Z,996.07
2017-07-21T02:55:06.582Z,996.08
2017-07-21T02:56:16.974Z,996.06
2017-07-21T02:57:27.316Z,995.99
2017-07-21T02:58:37.393Z,996.03
2017-07-21T02:59:47.741Z,996.07
2017-07-21T03:00:58.094Z,996.1
2017-07-21T03:33:24.002Z,996.31
2017-07-21T03:34:34.337Z,996.29
2017-07-21T03:35:44.355Z,996.3
2017-07-21T03:36:54.705Z,996.3
2017-07-21T03:38:05.047Z,996.3
2017-07-21T03:39:15.131Z,996.34
2017-07-21T03:40:25.467Z,996.39
2017-07-21T03:41:35.805Z,996.43
2017-07-21T03:42:46.165Z,996.4
2017-07-21T03:43:56.534Z,996.44
2017-07-21T03:45:06.922Z,996.38
2017-07-21T03:46:16.970Z,996.41
2017-07-21T03:47:27.002Z,996.42
2017-07-21T03:48:37.347Z,996.46
2017-07-21T03:49:47.390Z,996.5
2017-07-21T03:50:57.780Z,996.51
2017-07-21T03:52:07.186Z,996.52
2017-07-21T03:53:17.525Z,996.5
2017-07-21T03:54:27.857Z,996.53
2017-07-21T03:55:37.896Z,996.56
2017-07-21T03:56:48.249Z,996.57
2017-07-21T03:57:58.278Z,996.6
2017-07-21T03:59:08.639Z,996.59
2017-07-21T04:00:18.997Z,996.6
2017-07-21T04:01:29.034Z,996.6
2017-07-21T04:02:39.441Z,996.6
2017-07-21T04:03:49.790Z,996.63
2017-07-21T04:05:00.139Z,996.58
2017-07-21T04:06:09.846Z,996.62
2017-07-21T04:07:20.187Z,996.56
2017-07-21T04:08:30.542Z,996.57
2017-07-21T04:09:40.557Z,996.6
2017-07-21T04:10:50.904Z,996.61
2017-07-21T04:12:01.260Z,996.61
2017-07-21T04:13:11.594Z,996.57
2017-07-21T04:14:21.996Z,996.63
2017-07-21T04:15:32.340Z,996.59
2017-07-21T04:16:42.380Z,996.57
2017-07-21T04:17:52.732Z,996.64
2017-07-21T04:19:02.756Z,996.62
2017-07-21T04:20:12.835Z,996.66
2017-07-21T04:21:22.859Z,996.68
2017-07-21T04:22:32.885Z,996.71
2017-07-21T04:23:42.601Z,996.72
2017-07-21T04:24:52.947Z,996.71
2017-07-21T04:26:03.361Z,996.72
2017-07-21T04:27:13.732Z,996.75
2017-07-21T04:28:24.068Z,996.69
2017-07-21T04:29:34.092Z,996.76
2017-07-21T04:30:43.804Z,996.75
2017-07-21T04:31:54.214Z,996.73
2017-07-21T04:33:04.555Z,996.78
2017-07-21T04:34:14.898Z,996.81
2017-07-21T04:35:24.987Z,996.84
2017-07-21T04:36:35.319Z,997.06
2017-07-21T04:37:45.663Z,997.42
2017-07-21T04:38:56.010Z,996.96
2017-07-21T04:40:06.352Z,997.27
2017-07-21T04:41:16.684Z,997.35
2017-07-21T04:42:27.034Z,997.37
2017-07-21T04:43:37.064Z,997.16
2017-07-21T04:44:47.394Z,997.03
2017-07-21T04:45:57.423Z,997.11
2017-07-21T04:47:07.780Z,997.08
2017-07-21T04:48:18.119Z,996.98
2017-07-21T04:49:28.519Z,996.82
2017-07-21T04:50:38.880Z,996.8
2017-07-21T04:51:49.225Z,996.92
2017-07-21T04:52:59.575Z,997.09
2017-07-21T04:54:09.914Z,997.12
2017-07-21T04:55:20.264Z,997.17
2017-07-21T04:56:30.601Z,997.25
2017-07-21T04:57:40.962Z,997.26
2017-07-21T04:58:51.319Z,997.3
2017-07-21T05:00:01.683Z,997.3
2017-07-21T05:01:11.743Z,997.33
2017-07-21T05:02:21.787Z,997.29
2017-07-21T05:03:32.136Z,997.34
2017-07-21T05:04:42.179Z,997.33
2017-07-21T05:05:52.542Z,997.33
2017-07-21T05:07:02.884Z,997.35
2017-07-21T05:08:13.218Z,997.41
2017-07-21T05:09:23.608Z,997.43
2017-07-21T05:10:33.950Z,997.44
2017-07-21T05:11:44.294Z,997.42
2017-07-21T05:12:54.707Z,997.39
2017-07-21T05:14:04.743Z,997.31
2017-07-21T05:15:14.469Z,997.24
2017-07-21T05:16:24.498Z,996.95
2017-07-21T05:17:34.843Z,997.04
2017-07-21T05:18:45.247Z,997.19
2017-07-21T05:19:55.280Z,997.09
2017-07-21T05:21:05.639Z,997.16
2017-07-21T05:22:15.370Z,997.18
2017-07-21T05:23:25.726Z,997.27
2017-07-21T05:24:36.130Z,997.24
2017-07-21T05:25:45.855Z,997.41
2017-07-21T05:26:56.267Z,997.44
2017-07-21T05:28:06.618Z,997.42
2017-07-21T05:29:16.692Z,997.46
2017-07-21T05:30:27.031Z,997.45
2017-07-21T05:31:37.376Z,997.38
2017-07-21T05:32:47.718Z,997.33
2017-07-21T05:33:58.077Z,997.49
2017-07-21T05:35:08.445Z,997.5
2017-07-21T05:36:18.794Z,997.22
2017-07-21T05:37:29.144Z,997.47
2017-07-21T05:38:38.880Z,997.55
2017-07-21T05:39:49.236Z,997.48
2017-07-21T05:40:59.581Z,997.49
2017-07-21T05:42:09.627Z,997.55
2017-07-21T05:43:19.970Z,997.49
2017-07-21T05:44:30.328Z,997.46
2017-07-21T05:45:40.055Z,997.49
2017-07-21T05:46:50.401Z,997.49
2017-07-21T05:48:00.810Z,997.49
2017-07-21T05:49:10.841Z,997.55
2017-07-21T05:50:21.197Z,997.54
2017-07-21T05:51:31.554Z,997.59
2017-07-21T05:52:41.916Z,997.55
2017-07-21T05:53:51.948Z,997.56
2017-07-21T05:55:01.999Z,997.61
2017-07-21T05:56:12.366Z,997.73
2017-07-21T05:57:22.714Z,998.25
2017-07-21T05:58:32.753Z,998.54
2017-07-21T05:59:43.150Z,998.29
2017-07-21T06:00:53.173Z,998.24
2017-07-21T06:02:03.522Z,998.28
2017-07-21T06:03:13.873Z,998.16
2017-07-21T06:04:24.214Z,998.03
2017-07-21T06:05:34.567Z,997.91
2017-07-21T06:06:44.907Z,997.89
2017-07-21T06:07:55.263Z,997.96
2017-07-21T06:09:05.622Z,998.08
2017-07-21T06:10:15.972Z,997.94
2017-07-21T06:11:26.017Z,997.95
2017-07-21T06:12:36.376Z,998.01
2017-07-21T06:13:46.096Z,998.09
2017-07-21T06:14:56.449Z,998.03
2017-07-21T06:16:06.803Z,998.01
2017-07-21T06:17:17.168Z,997.96
2017-07-21T06:18:27.228Z,997.74
2017-07-21T06:19:37.579Z,997.41
2017-07-21T06:20:47.919Z,997.34
2017-07-21T06:21:58.266Z,997.35
2017-07-21T06:23:10.219Z,997.33
2017-07-21T06:24:19.939Z,997.4
2017-07-21T06:25:30.305Z,997.46
2017-07-21T06:26:40.656Z,997.55
2017-07-21T06:27:51.021Z,997.67
2017-07-21T06:29:01.171Z,997.65
2017-07-21T06:30:11.515Z,997.73
2017-07-21T06:31:21.855Z,997.73
2017-07-21T06:32:32.203Z,997.74
2017-07-21T06:33:42.550Z,997.62
2017-07-21T06:34:52.947Z,997.59
2017-07-21T06:36:02.996Z,997.65
2017-07-21T06:37:13.035Z,997.7
2017-07-21T06:38:23.406Z,997.88
2017-07-21T06:39:33.467Z,997.93
2017-07-21T06:40:43.525Z,997.89
2017-07-21T06:41:53.876Z,997.79
2017-07-21T06:43:04.226Z,997.76
2017-07-21T06:44:14.570Z,997.7
2017-07-21T06:45:24.614Z,997.69
2017-07-21T06:46:35.012Z,997.69
2017-07-21T06:47:45.055Z,997.67
2017-07-21T06:48:55.083Z,997.73
2017-07-21T06:50:05.119Z,997.6
2017-07-21T06:51:15.491Z,997.61
2017-07-21T06:52:25.821Z,997.59
2017-07-21T06:53:36.172Z,997.59
2017-07-21T06:54:46.198Z,997.58
2017-07-21T06:55:56.551Z,997.61
2017-07-21T06:57:06.283Z,997.64
2017-07-21T06:58:16.685Z,997.65
2017-07-21T06:59:26.427Z,997.62
2017-07-21T07:00:36.777Z,997.64
2017-07-21T07:01:47.117Z,997.66
2017-07-21T07:02:57.723Z,997.68
2017-07-21T07:04:08.075Z,997.66
2017-07-21T07:05:18.118Z,997.67
2017-07-21T07:06:28.468Z,997.64
2017-07-21T07:07:38.496Z,997.69
2017-07-21T07:08:48.835Z,997.64
2017-07-21T07:09:59.190Z,997.67
2017-07-21T07:11:09.530Z,997.68
2017-07-21T07:12:19.557Z,997.65
2017-07-21T07:13:29.908Z,997.62
2017-07-21T07:14:40.270Z,997.61
2017-07-21T07:15:50.686Z,997.64
2017-07-21T07:17:01.046Z,997.6
2017-07-21T07:18:11.383Z,997.63
2017-07-21T07:19:21.442Z,997.61
2017-07-21T07:20:31.796Z,997.72
2017-07-21T07:21:41.882Z,997.63
2017-07-21T07:22:52.247Z,997.65
2017-07-21T07:24:02.612Z,997.67
2017-07-21T07:25:12.959Z,997.7
2017-07-21T07:26:23.306Z,997.63
2017-07-21T07:27:33.390Z,997.65
2017-07-21T07:28:43.739Z,997.72
2017-07-21T07:29:54.109Z,997.69
2017-07-21T07:31:04.459Z,997.74
2017-07-21T07:32:14.501Z,997.79
2017-07-21T07:33:24.852Z,997.8
2017-07-21T07:34:35.211Z,997.82
2017-07-21T07:35:45.248Z,997.77
2017-07-21T07:36:55.294Z,997.79
2017-07-21T07:38:05.658Z,997.78
2017-07-21T07:39:15.732Z,997.82
2017-07-21T07:40:26.089Z,997.77
2017-07-21T07:41:36.130Z,997.84
2017-07-21T07:42:46.500Z,997.85
2017-07-21T07:43:56.850Z,997.84
2017-07-21T07:45:07.245Z,997.93
2017-07-21T07:46:17.606Z,997.88
2017-07-21T07:47:27.956Z,997.83
2017-07-21T07:48:38.308Z,997.88
2017-07-21T07:49:48.358Z,997.84
2017-07-21T07:50:58.731Z,997.87
2017-07-21T07:52:09.079Z,997.85
2017-07-21T07:53:19.445Z,997.82
2017-07-21T07:54:29.802Z,997.84
2017-07-21T07:55:40.147Z,997.84
2017-07-21T07:56:50.570Z,997.9
2017-07-21T07:58:00.917Z,997.85
2017-07-21T07:59:11.263Z,997.88
2017-07-21T08:00:21.624Z,997.91
2017-07-21T08:01:31.666Z,997.87
2017-07-21T08:02:41.761Z,997.87
2017-07-21T08:03:52.140Z,997.88
2017-07-21T08:05:02.502Z,997.89
2017-07-21T08:06:12.864Z,997.9
2017-07-21T08:07:22.900Z,997.91
2017-07-21T08:08:33.266Z,997.92
2017-07-21T08:09:43.620Z,997.92
2017-07-21T08:10:53.968Z,997.9
2017-07-21T08:12:03.697Z,997.92
2017-07-21T08:13:14.048Z,997.89
2017-07-21T08:14:24.404Z,997.9
2017-07-21T08:15:34.451Z,997.89
2017-07-21T08:16:44.813Z,997.88
2017-07-21T08:17:55.163Z,997.94
2017-07-21T08:19:05.523Z,997.93
2017-07-21T08:20:15.619Z,997.89
2017-07-21T08:21:25.957Z,997.89
2017-07-21T08:22:35.679Z,997.88
2017-07-21T08:23:46.020Z,997.89
2017-07-21T08:24:56.376Z,997.92
2017-07-21T08:26:06.431Z,997.99
2017-07-21T08:27:16.458Z,997.93
2017-07-21T08:28:26.181Z,997.89
2017-07-21T08:29:36.529Z,997.93
2017-07-21T08:30:46.890Z,997.92
2017-07-21T08:31:57.295Z,997.91
2017-07-21T08:33:07.663Z,997.9
2017-07-21T08:34:18.007Z,997.89
2017-07-21T08:35:28.352Z,997.89
2017-07-21T08:36:38.703Z,997.9
2017-07-21T08:37:49.113Z,997.92
2017-07-21T08:38:59.471Z,997.87
2017-07-21T08:40:09.813Z,997.89
2017-07-21T08:41:20.192Z,997.89
2017-07-21T08:42:30.222Z,997.94
2017-07-21T08:43:40.558Z,997.9
2017-07-21T08:44:50.580Z,997.83
2017-07-21T08:46:00.633Z,997.83
2017-07-21T08:47:10.985Z,997.83
2017-07-21T08:48:21.337Z,997.92
2017-07-21T08:49:31.669Z,997.86
2017-07-21T08:50:42.025Z,997.88
2017-07-21T08:51:52.388Z,997.9
2017-07-21T08:53:02.759Z,997.9
2017-07-21T08:54:13.120Z,997.89
2017-07-21T08:55:23.209Z,997.87
2017-07-21T08:56:33.573Z,997.82
2017-07-21T08:57:43.296Z,997.83
2017-07-21T08:58:53.644Z,997.76
2017-07-21T09:00:04.008Z,997.82
2017-07-21T09:01:14.362Z,997.77
2017-07-21T09:02:24.397Z,997.8
2017-07-21T09:03:34.753Z,997.83
2017-07-21T09:04:45.116Z,997.8
2017-07-21T09:05:55.597Z,997.81
2017-07-21T09:07:08.376Z,997.81
2017-07-21T09:08:18.760Z,997.8
2017-07-21T09:09:28.815Z,997.81
2017-07-21T09:10:38.870Z,997.79
2017-07-21T09:11:49.222Z,997.79
2017-07-21T09:12:59.675Z,997.78
2017-07-21T09:14:10.032Z,997.81
2017-07-21T09:15:20.098Z,997.81
2017-07-21T09:16:30.155Z,997.76
2017-07-21T09:17:40.516Z,997.8
2017-07-21T09:18:50.918Z,997.83
2017-07-21T09:20:00.989Z,997.74
2017-07-21T09:21:11.353Z,997.8
2017-07-21T09:22:21.713Z,997.76
2017-07-21T09:23:31.465Z,997.74
2017-07-21T09:24:41.881Z,997.75
2017-07-21T09:25:52.267Z,997.65
2017-07-21T09:27:02.633Z,997.73
2017-07-21T09:28:12.699Z,997.69
2017-07-21T09:29:23.114Z,997.71
2017-07-21T09:30:33.497Z,997.74
2017-07-21T09:31:43.862Z,997.72
2017-07-21T09:32:54.223Z,997.76
2017-07-21T09:34:04.294Z,997.73
2017-07-21T09:35:14.327Z,997.73
2017-07-21T09:36:24.749Z,997.74
2017-07-21T09:37:34.781Z,997.73
2017-07-21T09:38:44.846Z,997.74
2017-07-21T09:39:55.224Z,997.66
2017-07-21T09:41:05.604Z,997.68
2017-07-21T09:42:15.755Z,997.64
2017-07-21T09:43:26.120Z,997.59
2017-07-21T09:44:36.492Z,997.64
2017-07-21T09:45:46.861Z,997.69
2017-07-21T09:46:56.609Z,997.6
2017-07-21T09:48:07.038Z,997.64
2017-07-21T09:49:17.089Z,997.68
2017-07-21T09:50:27.466Z,997.68
2017-07-21T09:51:37.880Z,997.63
2017-07-21T09:52:48.251Z,997.61
2017-07-21T09:53:58.676Z,997.68
2017-07-21T09:55:08.422Z,997.64
2017-07-21T09:56:18.165Z,997.7
2017-07-21T09:57:28.225Z,997.59
2017-07-21T09:58:38.579Z,997.62
2017-07-21T09:59:48.674Z,997.6
2017-07-21T10:00:59.032Z,997.65
2017-07-21T10:02:09.385Z,997.63
2017-07-21T10:03:19.439Z,997.62
2017-07-21T10:04:29.495Z,997.64
2017-07-21T10:05:39.867Z,997.69
2017-07-21T10:06:50.236Z,997.63
2017-07-21T10:08:00.291Z,997.6
2017-07-21T10:09:10.659Z,997.66
2017-07-21T10:10:21.097Z,997.67
2017-07-21T10:11:31.474Z,997.66
2017-07-21T10:12:41.842Z,997.61
2017-07-21T10:13:51.890Z,997.61
2017-07-21T10:15:02.263Z,997.6
2017-07-21T10:16:12.625Z,997.63
2017-07-21T10:17:22.980Z,997.64
2017-07-21T10:18:33.338Z,997.61
2017-07-21T10:19:43.736Z,997.61
2017-07-21T10:20:54.097Z,997.58
2017-07-21T10:22:04.163Z,997.58
2017-07-21T10:23:14.222Z,997.53
2017-07-21T10:24:23.965Z,997.6
2017-07-21T10:25:34.332Z,997.62
2017-07-21T10:26:44.714Z,997.65
2017-07-21T10:27:55.059Z,997.57
2017-07-21T10:29:05.634Z,997.56
2017-07-21T10:30:15.702Z,997.54
2017-07-21T10:31:26.084Z,997.57
2017-07-21T10:32:36.506Z,997.48
2017-07-21T10:33:46.872Z,997.47
2017-07-21T10:34:57.234Z,997.51
2017-07-21T10:36:07.612Z,997.47
2017-07-21T10:37:17.973Z,997.44
2017-07-21T10:38:28.341Z,997.53
2017-07-21T10:39:38.715Z,997.56
2017-07-21T10:40:49.083Z,997.49
2017-07-21T10:41:59.459Z,997.54
2017-07-21T10:43:09.842Z,997.53
2017-07-21T10:44:19.958Z,997.56
2017-07-21T10:45:30.320Z,997.57
2017-07-21T10:46:40.717Z,997.51
2017-07-21T10:47:51.097Z,997.51
2017-07-21T10:49:01.458Z,997.49
2017-07-21T10:50:11.873Z,997.49
2017-07-21T10:51:22.243Z,997.59
2017-07-21T10:52:32.606Z,997.47
2017-07-21T10:53:42.671Z,997.51
2017-07-21T10:54:53.040Z,997.5
2017-07-21T10:56:03.156Z,997.46
2017-07-21T10:57:13.515Z,997.4
2017-07-21T10:58:23.887Z,997.49
2017-07-21T10:59:34.297Z,997.4
2017-07-21T11:00:44.671Z,997.34
2017-07-21T11:01:54.728Z,997.36
2017-07-21T11:03:05.074Z,997.4
2017-07-21T11:04:15.436Z,997.35
2017-07-21T11:05:25.855Z,997.34
2017-07-21T11:06:35.928Z,997.32
2017-07-21T11:07:46.337Z,997.33
2017-07-21T11:08:56.709Z,997.36
2017-07-21T11:10:07.093Z,997.37
2017-07-21T11:11:17.460Z,997.31
2017-07-21T11:12:27.854Z,997.34
2017-07-21T11:13:38.273Z,997.33
2017-07-21T11:14:48.641Z,997.3
2017-07-21T11:15:58.700Z,997.23
2017-07-21T11:17:09.072Z,997.3
2017-07-21T11:18:19.433Z,997.34
2017-07-21T11:19:29.852Z,997.28
2017-07-21T11:20:39.909Z,997.29
2017-07-21T11:21:50.308Z,997.26
2017-07-21T11:23:00.669Z,997.27
2017-07-21T11:24:11.029Z,997.31
2017-07-21T11:25:21.449Z,997.32
2017-07-21T11:26:31.823Z,997.35
2017-07-21T11:27:42.217Z,997.31
2017-07-21T11:28:51.955Z,997.3
2017-07-21T11:30:02.320Z,997.26
2017-07-21T11:31:12.664Z,997.26
2017-07-21T11:32:23.027Z,997.28
2017-07-21T11:33:33.403Z,997.24
2017-07-21T11:34:43.440Z,997.21
2017-07-21T11:35:53.820Z,997.22
2017-07-21T11:37:04.259Z,997.27
2017-07-21T11:38:14.302Z,997.25
2017-07-21T11:39:24.678Z,997.31
2017-07-21T11:40:35.052Z,997.29
2017-07-21T11:41:45.228Z,997.28
2017-07-21T11:42:55.510Z,997.27
2017-07-21T11:44:05.757Z,997.24
2017-07-21T11:45:16.127Z,997.25
2017-07-21T11:46:26.487Z,997.19
2017-07-21T11:47:36.874Z,997.16
2017-07-21T11:48:46.927Z,997.14
2017-07-21T11:49:57.292Z,997.11
2017-07-21T11:51:07.680Z,997.09
2017-07-21T11:52:17.746Z,997.06
2017-07-21T11:53:27.804Z,997.07
2017-07-21T11:54:38.231Z,997.07
2017-07-21T11:55:48.607Z,997.07
2017-07-21T11:56:58.992Z,997.07
2017-07-21T11:58:09.364Z,997.05
2017-07-21T11:59:19.733Z,997.01
2017-07-21T12:00:30.824Z,997
2017-07-21T12:01:41.215Z,997.04
2017-07-21T12:02:51.590Z,996.99
2017-07-21T12:04:01.936Z,996.95
2017-07-21T12:05:12.312Z,996.96
2017-07-21T12:06:22.722Z,996.91
2017-07-21T12:07:33.071Z,996.93
2017-07-21T12:08:43.441Z,996.93
2017-07-21T12:09:53.503Z,996.9
2017-07-21T12:11:03.860Z,996.84
2017-07-21T12:12:14.206Z,996.84
2017-07-21T12:13:24.248Z,996.85
2017-07-21T12:14:34.009Z,996.84
2017-07-21T12:15:44.057Z,996.82
2017-07-21T12:16:54.412Z,996.83
2017-07-21T12:18:04.518Z,996.79
2017-07-21T12:19:14.887Z,996.8
2017-07-21T12:20:25.249Z,996.79
2017-07-21T12:21:35.612Z,996.82
2017-07-21T12:22:45.982Z,996.86
2017-07-21T12:23:56.099Z,996.89
2017-07-21T12:25:06.448Z,996.87
2017-07-21T12:26:16.481Z,996.89
2017-07-21T12:27:26.211Z,996.87
2017-07-21T12:28:36.554Z,996.85
2017-07-21T12:29:46.976Z,996.83
2017-07-21T12:30:57.044Z,996.83
2017-07-21T12:32:07.082Z,996.83
2017-07-21T12:33:17.440Z,996.84
2017-07-21T12:34:27.808Z,996.79
2017-07-21T12:35:38.223Z,996.83
2017-07-21T12:36:48.591Z,996.85
2017-07-21T12:37:58.640Z,996.8
2017-07-21T12:39:08.380Z,996.74
2017-07-21T12:40:18.764Z,996.7
2017-07-21T12:41:29.186Z,996.76
2017-07-21T12:42:39.546Z,996.73
2017-07-21T12:43:49.926Z,996.72
2017-07-21T12:45:00.275Z,996.69
2017-07-21T12:46:10.629Z,996.73
2017-07-21T12:47:20.696Z,996.73
2017-07-21T12:48:31.087Z,996.68
2017-07-21T12:49:41.443Z,996.75
2017-07-21T12:50:51.479Z,996.72
2017-07-21T12:52:01.219Z,996.69
2017-07-21T12:53:11.645Z,996.68
2017-07-21T12:54:22.017Z,996.64
2017-07-21T12:55:32.379Z,996.62
2017-07-21T12:56:42.443Z,996.65
2017-07-21T12:57:52.503Z,996.62
2017-07-21T12:59:02.862Z,996.64
2017-07-21T13:00:13.228Z,996.6
2017-07-21T13:01:23.593Z,996.65
2017-07-21T13:02:33.640Z,996.64
2017-07-21T13:03:43.717Z,996.57
2017-07-21T13:04:54.131Z,996.52
2017-07-21T13:06:04.512Z,996.48
2017-07-21T13:07:14.883Z,996.5
2017-07-21T13:08:24.935Z,996.5
2017-07-21T13:09:35.547Z,996.5
2017-07-21T13:10:45.970Z,996.47
2017-07-21T13:11:56.343Z,996.48
2017-07-21T13:13:06.918Z,996.42
2017-07-21T13:14:17.290Z,996.43
2017-07-21T13:15:27.673Z,996.39
2017-07-21T13:16:38.107Z,996.37
2017-07-21T13:17:48.479Z,996.39
2017-07-21T13:18:58.519Z,996.37
2017-07-21T13:20:08.278Z,996.4
2017-07-21T13:21:18.643Z,996.39
2017-07-21T13:22:29.041Z,996.43
2017-07-21T13:23:39.101Z,996.38
2017-07-21T13:24:49.165Z,996.34
2017-07-21T13:25:58.901Z,996.4
2017-07-21T13:27:09.293Z,996.4
2017-07-21T13:28:20.295Z,996.4
2017-07-21T13:29:35.017Z,996.33
2017-07-21T13:30:49.494Z,996.31
2017-07-21T13:32:04.561Z,996.3
2017-07-21T13:33:19.481Z,996.31
2017-07-21T13:34:34.091Z,996.39
2017-07-21T13:35:49.125Z,996.35
2017-07-21T13:37:03.434Z,996.32
2017-07-21T13:38:18.428Z,996.23
2017-07-21T13:39:28.482Z,996.26
2017-07-21T13:40:38.851Z,996.26
2017-07-21T13:41:49.229Z,996.23
2017-07-21T13:42:59.613Z,996.33
2017-07-21T13:44:10.033Z,996.26
2017-07-21T13:45:20.393Z,996.25
2017-07-21T13:46:30.751Z,996.24
2017-07-21T13:47:40.798Z,996.23
2017-07-21T13:48:51.187Z,996.22
2017-07-21T13:50:01.605Z,996.21
2017-07-21T13:51:11.660Z,996.18
2017-07-21T13:52:21.712Z,996.18
2017-07-21T13:53:31.783Z,996.18
2017-07-21T13:54:42.161Z,996.19
2017-07-21T13:55:52.261Z,996.16
2017-07-21T13:57:02.317Z,996.19
2017-07-21T13:58:12.704Z,996.11
2017-07-21T13:59:23.064Z,996.12
2017-07-21T14:00:33.124Z,996.07
2017-07-21T14:01:43.557Z,996.09
2017-07-21T14:02:53.934Z,996.12
2017-07-21T14:04:04.327Z,996.02
2017-07-21T14:05:14.713Z,996.1
2017-07-21T14:06:25.117Z,996.02
2017-07-21T14:07:34.860Z,995.97
2017-07-21T14:08:45.248Z,996.02
2017-07-21T14:09:55.614Z,996
2017-07-21T14:11:05.989Z,995.99
2017-07-21T14:12:16.359Z,995.96
2017-07-21T14:13:26.463Z,995.93
2017-07-21T14:14:36.528Z,995.85
2017-07-21T14:15:46.897Z,995.86
2017-07-21T14:16:57.280Z,995.87
2017-07-21T14:18:07.675Z,995.89
2017-07-21T14:19:18.085Z,995.9
2017-07-21T14:20:28.471Z,995.9
2017-07-21T14:21:38.942Z,995.86
2017-07-21T14:22:49.306Z,995.87
2017-07-21T14:23:59.666Z,995.84
2017-07-21T14:25:10.084Z,995.83
2017-07-21T14:26:20.484Z,995.81
2017-07-21T14:27:30.831Z,995.75
2017-07-21T14:28:41.168Z,995.75
2017-07-21T14:29:51.216Z,995.74
2017-07-21T14:31:01.576Z,995.72
2017-07-21T14:32:11.923Z,995.69
2017-07-21T14:33:22.270Z,995.66
2017-07-21T14:34:32.613Z,995.72
2017-07-21T14:35:42.974Z,995.69
2017-07-21T14:36:53.331Z,995.71
2017-07-21T14:38:03.860Z,995.69
2017-07-21T14:39:14.248Z,995.69
2017-07-21T14:40:24.606Z,995.66
2017-07-21T14:41:34.663Z,995.68
2017-07-21T14:42:45.068Z,995.7
2017-07-21T14:43:55.440Z,995.66
2017-07-21T14:45:05.806Z,995.62
2017-07-21T14:46:16.158Z,995.66
2017-07-21T14:47:26.525Z,995.6
2017-07-21T14:48:36.883Z,995.61
2017-07-21T14:49:47.245Z,995.65
2017-07-21T14:50:57.276Z,995.6
2017-07-21T14:52:07.628Z,995.54
2017-07-21T14:53:17.990Z,995.58
2017-07-21T14:54:28.044Z,995.58
2017-07-21T14:55:38.404Z,995.58
2017-07-21T14:56:48.752Z,995.57
2017-07-21T14:57:58.772Z,995.56
2017-07-21T14:59:08.803Z,995.54
2017-07-21T15:00:19.210Z,995.53
2017-07-21T15:01:29.253Z,995.55
2017-07-21T15:02:39.299Z,995.54
2017-07-21T15:03:49.362Z,995.48
2017-07-21T15:04:59.721Z,995.5
2017-07-21T15:06:09.757Z,995.49
2017-07-21T15:07:20.121Z,995.47
2017-07-21T15:08:30.175Z,995.44
2017-07-21T15:09:40.228Z,995.43
2017-07-21T15:10:50.572Z,995.42
2017-07-21T15:12:00.983Z,995.4